sensor_id;sensor_type;location;lat;lon;timestamp;temperature;humidity
19363;DHT22;9817;50.80926400;5.16316200;2022-12-13T00:00:10;-2.30;99.90
19363;DHT22;9817;50.80926400;5.16316200;2022-12-13T00:02:40;-2.40;99.90
19363;DHT22;9817;50.80926400;5.16316200;2022-12-13T00:05:06;-2.40;99.90
19363;DHT22;9817;50.80926400;5.16316200;2022-12-13T00:07:33;-2.40;99.90
19363;DHT22;9817;50.80926400;5.16316200;2022-12-13T00:09:59;-2.50;99.90
19363;DHT22;9817;50.80926400;5.16316200;2022-12-13T00:12:24;-2.50;99.90
19363;DHT22;9817;50.80926400;5.16316200;2022-12-13T00:14:50;-2.50;99.90
19363;DHT22;9817;50.80926400;5.16316200;2022-12-13T00:17:16;-2.40;99.90
19363;DHT22;9817;50.80926400;5.16316200;2022-12-13T00:19:41;-2.50;99.90
19363;DHT22;9817;50.80926400;5.16316200;2022-12-13T00:22:07;-2.40;99.90
19363;DHT22;9817;50.80926400;5.16316200;2022-12-13T00:24:32;-2.50;99.90
19363;DHT22;9817;50.80926400;5.16316200;2022-12-13T00:26:58;-2.40;99.90
19363;DHT22;9817;50.80926400;5.16316200;2022-12-13T00:29:23;-2.30;99.90
19363;DHT22;9817;50.80926400;5.16316200;2022-12-13T00:31:50;-2.30;99.90
19363;DHT22;9817;50.80926400;5.16316200;2022-12-13T00:34:15;-2.20;99.90
19363;DHT22;9817;50.80926400;5.16316200;2022-12-13T00:36:41;-2.30;99.90
19363;DHT22;9817;50.80926400;5.16316200;2022-12-13T00:39:07;-2.30;99.90
19363;DHT22;9817;50.80926400;5.16316200;2022-12-13T00:41:34;-2.20;99.90
19363;DHT22;9817;50.80926400;5.16316200;2022-12-13T00:44:01;-2.20;99.90
19363;DHT22;9817;50.80926400;5.16316200;2022-12-13T00:46:28;-2.20;99.90
19363;DHT22;9817;50.80926400;5.16316200;2022-12-13T00:48:58;-2.30;99.90
19363;DHT22;9817;50.80926400;5.16316200;2022-12-13T00:51:25;-2.30;99.90
19363;DHT22;9817;50.80926400;5.16316200;2022-12-13T00:53:52;-2.30;99.90
19363;DHT22;9817;50.80926400;5.16316200;2022-12-13T00:56:20;-2.30;99.90
19363;DHT22;9817;50.80926400;5.16316200;2022-12-13T00:58:47;-2.20;99.90
19363;DHT22;9817;50.80926400;5.16316200;2022-12-13T01:01:15;-2.20;99.90
19363;DHT22;9817;50.80926400;5.16316200;2022-12-13T01:03:41;-2.20;99.90
19363;DHT22;9817;50.80926400;5.16316200;2022-12-13T01:06:17;-2.20;99.90
19363;DHT22;9817;50.80926400;5.16316200;2022-12-13T01:08:44;-2.30;99.90
19363;DHT22;9817;50.80926400;5.16316200;2022-12-13T01:11:10;-2.40;99.90
19363;DHT22;9817;50.80926400;5.16316200;2022-12-13T01:13:36;-2.40;99.90
19363;DHT22;9817;50.80926400;5.16316200;2022-12-13T01:16:04;-2.30;99.90
19363;DHT22;9817;50.80926400;5.16316200;2022-12-13T01:18:30;-2.20;99.90
19363;DHT22;9817;50.80926400;5.16316200;2022-12-13T01:20:58;-2.10;99.90
19363;DHT22;9817;50.80926400;5.16316200;2022-12-13T01:23:25;-2.10;99.90
19363;DHT22;9817;50.80926400;5.16316200;2022-12-13T01:25:51;-2.10;99.90
19363;DHT22;9817;50.80926400;5.16316200;2022-12-13T01:28:17;-2.10;99.90
19363;DHT22;9817;50.80926400;5.16316200;2022-12-13T01:30:42;-2.30;99.90
19363;DHT22;9817;50.80926400;5.16316200;2022-12-13T01:33:08;-2.30;99.90
19363;DHT22;9817;50.80926400;5.16316200;2022-12-13T01:35:34;-2.40;99.90
19363;DHT22;9817;50.80926400;5.16316200;2022-12-13T01:37:59;-2.40;99.90
19363;DHT22;9817;50.80926400;5.16316200;2022-12-13T01:40:26;-2.40;99.90
19363;DHT22;9817;50.80926400;5.16316200;2022-12-13T01:42:51;-2.40;99.90
19363;DHT22;9817;50.80926400;5.16316200;2022-12-13T01:45:22;-2.50;99.90
19363;DHT22;9817;50.80926400;5.16316200;2022-12-13T01:47:50;-2.50;99.90
19363;DHT22;9817;50.80926400;5.16316200;2022-12-13T01:50:22;-2.50;99.90
19363;DHT22;9817;50.80926400;5.16316200;2022-12-13T01:52:49;-2.40;99.90
19363;DHT22;9817;50.80926400;5.16316200;2022-12-13T01:55:17;-2.40;99.90
19363;DHT22;9817;50.80926400;5.16316200;2022-12-13T01:57:44;-2.40;99.90
19363;DHT22;9817;50.80926400;5.16316200;2022-12-13T02:00:11;-2.40;99.90
19363;DHT22;9817;50.80926400;5.16316200;2022-12-13T02:02:38;-2.40;99.90
19363;DHT22;9817;50.80926400;5.16316200;2022-12-13T02:05:20;-2.40;99.90
19363;DHT22;9817;50.80926400;5.16316200;2022-12-13T02:07:47;-2.40;99.90
19363;DHT22;9817;50.80926400;5.16316200;2022-12-13T02:10:13;-2.30;99.90
19363;DHT22;9817;50.80926400;5.16316200;2022-12-13T02:12:40;-2.40;99.90
19363;DHT22;9817;50.80926400;5.16316200;2022-12-13T02:15:09;-2.30;99.90
19363;DHT22;9817;50.80926400;5.16316200;2022-12-13T02:17:49;-2.40;99.90
19363;DHT22;9817;50.80926400;5.16316200;2022-12-13T02:20:49;-2.50;99.90
19363;DHT22;9817;50.80926400;5.16316200;2022-12-13T02:29:28;-2.70;99.90
19363;DHT22;9817;50.80926400;5.16316200;2022-12-13T02:32:00;-2.70;99.90
19363;DHT22;9817;50.80926400;5.16316200;2022-12-13T02:34:35;-2.70;99.90
19363;DHT22;9817;50.80926400;5.16316200;2022-12-13T02:37:16;-2.70;99.90
19363;DHT22;9817;50.80926400;5.16316200;2022-12-13T02:40:27;-2.70;99.90
19363;DHT22;9817;50.80926400;5.16316200;2022-12-13T02:43:16;-2.70;99.90
19363;DHT22;9817;50.80926400;5.16316200;2022-12-13T02:45:46;-2.80;99.90
19363;DHT22;9817;50.80926400;5.16316200;2022-12-13T02:48:16;-2.70;99.90
19363;DHT22;9817;50.80926400;5.16316200;2022-12-13T02:50:43;-2.90;99.90
19363;DHT22;9817;50.80926400;5.16316200;2022-12-13T02:53:11;-3.00;99.90
19363;DHT22;9817;50.80926400;5.16316200;2022-12-13T02:55:38;-3.00;99.90
19363;DHT22;9817;50.80926400;5.16316200;2022-12-13T02:58:04;-3.00;99.90
19363;DHT22;9817;50.80926400;5.16316200;2022-12-13T03:03:32;-2.90;99.90
19363;DHT22;9817;50.80926400;5.16316200;2022-12-13T03:06:33;-2.90;99.90
19363;DHT22;9817;50.80926400;5.16316200;2022-12-13T03:15:23;-3.10;99.90
19363;DHT22;9817;50.80926400;5.16316200;2022-12-13T03:18:08;-3.10;99.90
19363;DHT22;9817;50.80926400;5.16316200;2022-12-13T03:20:47;-3.00;99.90
19363;DHT22;9817;50.80926400;5.16316200;2022-12-13T03:23:14;-3.00;99.90
19363;DHT22;9817;50.80926400;5.16316200;2022-12-13T03:25:40;-3.00;99.90
19363;DHT22;9817;50.80926400;5.16316200;2022-12-13T03:28:06;-3.00;99.90
19363;DHT22;9817;50.80926400;5.16316200;2022-12-13T03:30:33;-3.10;99.90
19363;DHT22;9817;50.80926400;5.16316200;2022-12-13T03:32:59;-3.10;99.90
19363;DHT22;9817;50.80926400;5.16316200;2022-12-13T03:35:25;-3.00;99.90
19363;DHT22;9817;50.80926400;5.16316200;2022-12-13T03:37:50;-3.10;99.90
19363;DHT22;9817;50.80926400;5.16316200;2022-12-13T03:40:17;-2.90;99.90
19363;DHT22;9817;50.80926400;5.16316200;2022-12-13T03:42:44;-2.80;99.90
19363;DHT22;9817;50.80926400;5.16316200;2022-12-13T03:45:10;-2.80;99.90
19363;DHT22;9817;50.80926400;5.16316200;2022-12-13T03:47:35;-2.90;99.90
19363;DHT22;9817;50.80926400;5.16316200;2022-12-13T03:50:01;-2.90;99.90
19363;DHT22;9817;50.80926400;5.16316200;2022-12-13T03:52:26;-2.90;99.90
19363;DHT22;9817;50.80926400;5.16316200;2022-12-13T03:54:52;-2.90;99.90
19363;DHT22;9817;50.80926400;5.16316200;2022-12-13T03:57:18;-3.00;99.90
19363;DHT22;9817;50.80926400;5.16316200;2022-12-13T03:59:43;-3.10;99.90
19363;DHT22;9817;50.80926400;5.16316200;2022-12-13T04:02:09;-3.10;99.90
19363;DHT22;9817;50.80926400;5.16316200;2022-12-13T04:04:34;-3.00;99.90
19363;DHT22;9817;50.80926400;5.16316200;2022-12-13T04:07:00;-3.00;99.90
19363;DHT22;9817;50.80926400;5.16316200;2022-12-13T04:09:25;-3.00;99.90
19363;DHT22;9817;50.80926400;5.16316200;2022-12-13T04:11:51;-3.00;99.90
19363;DHT22;9817;50.80926400;5.16316200;2022-12-13T04:14:35;-3.10;99.90
19363;DHT22;9817;50.80926400;5.16316200;2022-12-13T04:17:01;-3.10;99.90
19363;DHT22;9817;50.80926400;5.16316200;2022-12-13T04:19:26;-3.10;99.90
19363;DHT22;9817;50.80926400;5.16316200;2022-12-13T04:21:52;-3.20;99.90
19363;DHT22;9817;50.80926400;5.16316200;2022-12-13T04:24:22;-3.10;99.90
19363;DHT22;9817;50.80926400;5.16316200;2022-12-13T04:26:47;-3.00;99.90
19363;DHT22;9817;50.80926400;5.16316200;2022-12-13T04:29:13;-3.20;99.90
19363;DHT22;9817;50.80926400;5.16316200;2022-12-13T04:31:38;-3.20;99.90
19363;DHT22;9817;50.80926400;5.16316200;2022-12-13T04:34:04;-3.30;99.90
19363;DHT22;9817;50.80926400;5.16316200;2022-12-13T04:36:30;-3.20;99.90
19363;DHT22;9817;50.80926400;5.16316200;2022-12-13T04:38:55;-3.20;99.90
19363;DHT22;9817;50.80926400;5.16316200;2022-12-13T04:41:21;-3.40;99.90
19363;DHT22;9817;50.80926400;5.16316200;2022-12-13T04:43:51;-3.30;99.90
19363;DHT22;9817;50.80926400;5.16316200;2022-12-13T04:46:21;-3.30;99.90
19363;DHT22;9817;50.80926400;5.16316200;2022-12-13T04:48:47;-3.30;99.90
19363;DHT22;9817;50.80926400;5.16316200;2022-12-13T04:51:13;-3.30;99.90
19363;DHT22;9817;50.80926400;5.16316200;2022-12-13T04:53:40;-3.40;99.90
19363;DHT22;9817;50.80926400;5.16316200;2022-12-13T04:56:06;-3.40;99.90
19363;DHT22;9817;50.80926400;5.16316200;2022-12-13T04:58:32;-3.40;99.90
19363;DHT22;9817;50.80926400;5.16316200;2022-12-13T05:00:57;-3.30;99.90
19363;DHT22;9817;50.80926400;5.16316200;2022-12-13T05:03:23;-3.30;99.90
19363;DHT22;9817;50.80926400;5.16316200;2022-12-13T05:05:49;-3.30;99.90
19363;DHT22;9817;50.80926400;5.16316200;2022-12-13T05:08:15;-3.40;99.90
19363;DHT22;9817;50.80926400;5.16316200;2022-12-13T05:10:40;-3.30;99.90
19363;DHT22;9817;50.80926400;5.16316200;2022-12-13T05:13:06;-3.30;99.90
19363;DHT22;9817;50.80926400;5.16316200;2022-12-13T05:15:32;-3.30;99.90
19363;DHT22;9817;50.80926400;5.16316200;2022-12-13T05:18:03;-3.30;99.90
19363;DHT22;9817;50.80926400;5.16316200;2022-12-13T05:20:29;-3.20;99.90
19363;DHT22;9817;50.80926400;5.16316200;2022-12-13T05:22:57;-3.30;99.90
19363;DHT22;9817;50.80926400;5.16316200;2022-12-13T05:25:24;-3.50;99.90
19363;DHT22;9817;50.80926400;5.16316200;2022-12-13T05:27:50;-3.50;99.90
19363;DHT22;9817;50.80926400;5.16316200;2022-12-13T05:30:16;-3.60;99.90
19363;DHT22;9817;50.80926400;5.16316200;2022-12-13T05:32:42;-3.80;99.90
19363;DHT22;9817;50.80926400;5.16316200;2022-12-13T05:35:08;-3.80;99.90
19363;DHT22;9817;50.80926400;5.16316200;2022-12-13T05:37:34;-3.80;99.90
19363;DHT22;9817;50.80926400;5.16316200;2022-12-13T05:39:59;-3.60;99.90
19363;DHT22;9817;50.80926400;5.16316200;2022-12-13T05:42:25;-3.80;99.90
19363;DHT22;9817;50.80926400;5.16316200;2022-12-13T05:44:51;-3.70;99.90
19363;DHT22;9817;50.80926400;5.16316200;2022-12-13T05:47:17;-3.80;99.90
19363;DHT22;9817;50.80926400;5.16316200;2022-12-13T05:49:43;-3.80;99.90
19363;DHT22;9817;50.80926400;5.16316200;2022-12-13T05:52:16;-3.80;99.90
19363;DHT22;9817;50.80926400;5.16316200;2022-12-13T05:54:42;-3.80;99.90
19363;DHT22;9817;50.80926400;5.16316200;2022-12-13T05:57:08;-3.80;99.90
19363;DHT22;9817;50.80926400;5.16316200;2022-12-13T05:59:33;-3.70;99.90
19363;DHT22;9817;50.80926400;5.16316200;2022-12-13T06:01:59;-3.80;99.90
19363;DHT22;9817;50.80926400;5.16316200;2022-12-13T06:04:24;-3.90;99.90
19363;DHT22;9817;50.80926400;5.16316200;2022-12-13T06:06:51;-3.80;99.90
19363;DHT22;9817;50.80926400;5.16316200;2022-12-13T06:09:17;-3.80;99.90
19363;DHT22;9817;50.80926400;5.16316200;2022-12-13T06:11:43;-3.70;99.90
19363;DHT22;9817;50.80926400;5.16316200;2022-12-13T06:14:08;-3.80;99.90
19363;DHT22;9817;50.80926400;5.16316200;2022-12-13T06:16:34;-3.80;99.90
19363;DHT22;9817;50.80926400;5.16316200;2022-12-13T06:18:59;-3.70;99.90
19363;DHT22;9817;50.80926400;5.16316200;2022-12-13T06:21:25;-3.80;99.90
19363;DHT22;9817;50.80926400;5.16316200;2022-12-13T06:23:51;-3.80;99.90
19363;DHT22;9817;50.80926400;5.16316200;2022-12-13T06:26:16;-3.80;99.90
19363;DHT22;9817;50.80926400;5.16316200;2022-12-13T06:28:42;-3.90;99.90
19363;DHT22;9817;50.80926400;5.16316200;2022-12-13T06:31:08;-3.90;99.90
19363;DHT22;9817;50.80926400;5.16316200;2022-12-13T06:33:33;-3.80;99.90
19363;DHT22;9817;50.80926400;5.16316200;2022-12-13T06:36:01;-3.80;99.90
19363;DHT22;9817;50.80926400;5.16316200;2022-12-13T06:38:27;-3.70;99.90
19363;DHT22;9817;50.80926400;5.16316200;2022-12-13T06:40:53;-3.80;99.90
19363;DHT22;9817;50.80926400;5.16316200;2022-12-13T06:43:19;-3.90;99.90
19363;DHT22;9817;50.80926400;5.16316200;2022-12-13T06:45:46;-3.80;99.90
19363;DHT22;9817;50.80926400;5.16316200;2022-12-13T06:48:11;-3.80;99.90
19363;DHT22;9817;50.80926400;5.16316200;2022-12-13T06:50:37;-3.80;99.90
19363;DHT22;9817;50.80926400;5.16316200;2022-12-13T06:53:02;-3.80;99.90
19363;DHT22;9817;50.80926400;5.16316200;2022-12-13T06:55:28;-3.80;99.90
19363;DHT22;9817;50.80926400;5.16316200;2022-12-13T06:57:56;-3.90;99.90
19363;DHT22;9817;50.80926400;5.16316200;2022-12-13T07:00:22;-4.00;99.90
19363;DHT22;9817;50.80926400;5.16316200;2022-12-13T07:02:54;-3.90;99.90
19363;DHT22;9817;50.80926400;5.16316200;2022-12-13T07:05:20;-3.90;99.90
19363;DHT22;9817;50.80926400;5.16316200;2022-12-13T07:07:46;-3.90;99.90
19363;DHT22;9817;50.80926400;5.16316200;2022-12-13T07:10:11;-4.00;99.90
19363;DHT22;9817;50.80926400;5.16316200;2022-12-13T07:12:37;-3.90;99.90
19363;DHT22;9817;50.80926400;5.16316200;2022-12-13T07:15:03;-4.00;99.90
19363;DHT22;9817;50.80926400;5.16316200;2022-12-13T07:17:28;-4.00;99.90
19363;DHT22;9817;50.80926400;5.16316200;2022-12-13T07:19:54;-3.90;99.90
19363;DHT22;9817;50.80926400;5.16316200;2022-12-13T07:22:20;-3.90;99.90
19363;DHT22;9817;50.80926400;5.16316200;2022-12-13T07:24:45;-3.90;99.90
19363;DHT22;9817;50.80926400;5.16316200;2022-12-13T07:27:11;-3.90;99.90
19363;DHT22;9817;50.80926400;5.16316200;2022-12-13T07:29:37;-3.90;99.90
19363;DHT22;9817;50.80926400;5.16316200;2022-12-13T07:32:02;-3.90;99.90
19363;DHT22;9817;50.80926400;5.16316200;2022-12-13T07:34:28;-3.80;99.90
19363;DHT22;9817;50.80926400;5.16316200;2022-12-13T07:36:54;-3.90;99.90
19363;DHT22;9817;50.80926400;5.16316200;2022-12-13T07:39:23;-3.90;99.90
19363;DHT22;9817;50.80926400;5.16316200;2022-12-13T07:41:55;-3.90;99.90
19363;DHT22;9817;50.80926400;5.16316200;2022-12-13T07:44:20;-3.80;99.90
19363;DHT22;9817;50.80926400;5.16316200;2022-12-13T07:46:46;-3.90;99.90
19363;DHT22;9817;50.80926400;5.16316200;2022-12-13T07:49:12;-3.90;99.90
19363;DHT22;9817;50.80926400;5.16316200;2022-12-13T07:51:37;-3.80;99.90
19363;DHT22;9817;50.80926400;5.16316200;2022-12-13T07:54:03;-3.80;99.90
19363;DHT22;9817;50.80926400;5.16316200;2022-12-13T07:56:29;-3.70;99.90
19363;DHT22;9817;50.80926400;5.16316200;2022-12-13T07:58:54;-3.60;99.90
19363;DHT22;9817;50.80926400;5.16316200;2022-12-13T08:01:20;-3.50;99.90
19363;DHT22;9817;50.80926400;5.16316200;2022-12-13T08:03:49;-3.50;99.90
19363;DHT22;9817;50.80926400;5.16316200;2022-12-13T08:06:14;-3.50;99.90
19363;DHT22;9817;50.80926400;5.16316200;2022-12-13T08:08:40;-3.50;99.90
19363;DHT22;9817;50.80926400;5.16316200;2022-12-13T08:11:08;-3.40;99.90
19363;DHT22;9817;50.80926400;5.16316200;2022-12-13T08:13:35;-3.40;99.90
19363;DHT22;9817;50.80926400;5.16316200;2022-12-13T08:16:03;-3.40;99.90
19363;DHT22;9817;50.80926400;5.16316200;2022-12-13T08:18:29;-3.10;99.90
19363;DHT22;9817;50.80926400;5.16316200;2022-12-13T08:20:59;-3.10;99.90
19363;DHT22;9817;50.80926400;5.16316200;2022-12-13T08:23:25;-3.00;99.90
19363;DHT22;9817;50.80926400;5.16316200;2022-12-13T08:25:52;-3.00;99.90
19363;DHT22;9817;50.80926400;5.16316200;2022-12-13T08:28:18;-3.00;99.90
19363;DHT22;9817;50.80926400;5.16316200;2022-12-13T08:30:44;-3.00;99.90
19363;DHT22;9817;50.80926400;5.16316200;2022-12-13T08:33:10;-3.10;99.90
19363;DHT22;9817;50.80926400;5.16316200;2022-12-13T08:35:35;-2.90;99.90
19363;DHT22;9817;50.80926400;5.16316200;2022-12-13T08:38:01;-2.70;99.90
19363;DHT22;9817;50.80926400;5.16316200;2022-12-13T08:40:27;-2.60;99.90
19363;DHT22;9817;50.80926400;5.16316200;2022-12-13T08:42:56;-2.70;99.90
19363;DHT22;9817;50.80926400;5.16316200;2022-12-13T08:45:22;-2.70;99.90
19363;DHT22;9817;50.80926400;5.16316200;2022-12-13T08:47:52;-2.60;99.90
19363;DHT22;9817;50.80926400;5.16316200;2022-12-13T08:50:18;-2.60;99.90
19363;DHT22;9817;50.80926400;5.16316200;2022-12-13T08:52:44;-2.60;99.90
19363;DHT22;9817;50.80926400;5.16316200;2022-12-13T08:55:11;-2.50;99.90
19363;DHT22;9817;50.80926400;5.16316200;2022-12-13T08:57:38;-2.60;99.90
19363;DHT22;9817;50.80926400;5.16316200;2022-12-13T09:00:06;-2.50;99.90
19363;DHT22;9817;50.80926400;5.16316200;2022-12-13T09:02:32;-2.30;99.90
19363;DHT22;9817;50.80926400;5.16316200;2022-12-13T09:04:57;-2.00;99.90
19363;DHT22;9817;50.80926400;5.16316200;2022-12-13T09:07:23;-1.70;99.90
19363;DHT22;9817;50.80926400;5.16316200;2022-12-13T09:09:49;-1.60;99.90
19363;DHT22;9817;50.80926400;5.16316200;2022-12-13T09:12:14;-1.30;99.90
19363;DHT22;9817;50.80926400;5.16316200;2022-12-13T09:14:40;-1.40;99.90
19363;DHT22;9817;50.80926400;5.16316200;2022-12-13T09:17:06;-1.30;99.90
19363;DHT22;9817;50.80926400;5.16316200;2022-12-13T09:19:31;-1.30;99.90
19363;DHT22;9817;50.80926400;5.16316200;2022-12-13T09:21:57;-1.30;99.90
19363;DHT22;9817;50.80926400;5.16316200;2022-12-13T09:24:23;-1.30;99.90
19363;DHT22;9817;50.80926400;5.16316200;2022-12-13T09:26:48;-1.20;99.90
19363;DHT22;9817;50.80926400;5.16316200;2022-12-13T09:29:14;-0.90;99.90
19363;DHT22;9817;50.80926400;5.16316200;2022-12-13T09:31:42;-0.50;99.90
19363;DHT22;9817;50.80926400;5.16316200;2022-12-13T09:34:09;-0.30;99.90
19363;DHT22;9817;50.80926400;5.16316200;2022-12-13T09:36:35;-0.20;99.90
19363;DHT22;9817;50.80926400;5.16316200;2022-12-13T09:39:01;0.20;99.90
19363;DHT22;9817;50.80926400;5.16316200;2022-12-13T09:41:30;0.40;99.90
19363;DHT22;9817;50.80926400;5.16316200;2022-12-13T09:44:03;0.40;99.90
19363;DHT22;9817;50.80926400;5.16316200;2022-12-13T09:46:36;0.40;99.90
19363;DHT22;9817;50.80926400;5.16316200;2022-12-13T09:49:10;0.10;99.90
19363;DHT22;9817;50.80926400;5.16316200;2022-12-13T09:51:36;0.30;99.90
19363;DHT22;9817;50.80926400;5.16316200;2022-12-13T09:54:02;0.30;99.90
19363;DHT22;9817;50.80926400;5.16316200;2022-12-13T09:56:28;0.10;99.90
19363;DHT22;9817;50.80926400;5.16316200;2022-12-13T09:58:54;0.30;99.90
19363;DHT22;9817;50.80926400;5.16316200;2022-12-13T10:01:21;0.60;99.90
19363;DHT22;9817;50.80926400;5.16316200;2022-12-13T10:03:49;0.70;99.90
19363;DHT22;9817;50.80926400;5.16316200;2022-12-13T10:06:23;0.90;99.90
19363;DHT22;9817;50.80926400;5.16316200;2022-12-13T10:08:55;1.00;99.90
19363;DHT22;9817;50.80926400;5.16316200;2022-12-13T10:11:21;0.80;99.90
19363;DHT22;9817;50.80926400;5.16316200;2022-12-13T10:21:41;0.90;99.90
19363;DHT22;9817;50.80926400;5.16316200;2022-12-13T10:24:16;0.70;99.90
19363;DHT22;9817;50.80926400;5.16316200;2022-12-13T10:26:43;0.60;99.90
19363;DHT22;9817;50.80926400;5.16316200;2022-12-13T10:29:09;0.70;99.90
19363;DHT22;9817;50.80926400;5.16316200;2022-12-13T10:31:43;0.90;99.90
19363;DHT22;9817;50.80926400;5.16316200;2022-12-13T10:34:27;0.90;99.90
19363;DHT22;9817;50.80926400;5.16316200;2022-12-13T10:36:53;1.00;99.90
19363;DHT22;9817;50.80926400;5.16316200;2022-12-13T10:39:39;1.00;99.90
19363;DHT22;9817;50.80926400;5.16316200;2022-12-13T10:42:17;0.90;99.90
19363;DHT22;9817;50.80926400;5.16316200;2022-12-13T10:44:43;1.10;99.90
19363;DHT22;9817;50.80926400;5.16316200;2022-12-13T10:49:55;1.30;99.90
19363;DHT22;9817;50.80926400;5.16316200;2022-12-13T10:52:34;1.20;99.90
19363;DHT22;9817;50.80926400;5.16316200;2022-12-13T10:55:06;1.30;99.90
19363;DHT22;9817;50.80926400;5.16316200;2022-12-13T10:57:36;1.40;99.90
19363;DHT22;9817;50.80926400;5.16316200;2022-12-13T11:00:02;1.40;99.90
19363;DHT22;9817;50.80926400;5.16316200;2022-12-13T11:02:37;1.10;99.90
19363;DHT22;9817;50.80926400;5.16316200;2022-12-13T11:05:29;1.20;99.90
19363;DHT22;9817;50.80926400;5.16316200;2022-12-13T11:08:11;1.40;99.90
19363;DHT22;9817;50.80926400;5.16316200;2022-12-13T11:10:37;1.50;99.90
19363;DHT22;9817;50.80926400;5.16316200;2022-12-13T11:13:05;1.50;99.90
19363;DHT22;9817;50.80926400;5.16316200;2022-12-13T11:15:34;1.40;99.90
19363;DHT22;9817;50.80926400;5.16316200;2022-12-13T11:18:10;1.30;99.90
19363;DHT22;9817;50.80926400;5.16316200;2022-12-13T11:20:53;1.40;99.90
19363;DHT22;9817;50.80926400;5.16316200;2022-12-13T11:23:32;1.30;99.90
19363;DHT22;9817;50.80926400;5.16316200;2022-12-13T11:26:00;1.40;99.90
19363;DHT22;9817;50.80926400;5.16316200;2022-12-13T11:31:31;1.60;99.90
19363;DHT22;9817;50.80926400;5.16316200;2022-12-13T11:42:40;2.60;99.90
19363;DHT22;9817;50.80926400;5.16316200;2022-12-13T11:45:28;2.50;99.90
19363;DHT22;9817;50.80926400;5.16316200;2022-12-13T11:50:34;2.50;99.90
19363;DHT22;9817;50.80926400;5.16316200;2022-12-13T11:53:18;2.60;99.90
19363;DHT22;9817;50.80926400;5.16316200;2022-12-13T11:58:47;2.90;99.90
19363;DHT22;9817;50.80926400;5.16316200;2022-12-13T12:01:19;2.90;99.90
19363;DHT22;9817;50.80926400;5.16316200;2022-12-13T12:03:50;2.70;99.90
19363;DHT22;9817;50.80926400;5.16316200;2022-12-13T12:06:21;2.70;99.90
19363;DHT22;9817;50.80926400;5.16316200;2022-12-13T12:08:59;2.90;99.90
19363;DHT22;9817;50.80926400;5.16316200;2022-12-13T12:11:31;2.90;99.90
19363;DHT22;9817;50.80926400;5.16316200;2022-12-13T12:14:32;3.00;99.90
19363;DHT22;9817;50.80926400;5.16316200;2022-12-13T12:17:02;3.10;99.90
19363;DHT22;9817;50.80926400;5.16316200;2022-12-13T12:19:35;3.00;99.90
19363;DHT22;9817;50.80926400;5.16316200;2022-12-13T12:30:20;3.20;99.90
19363;DHT22;9817;50.80926400;5.16316200;2022-12-13T12:33:06;3.00;99.90
19363;DHT22;9817;50.80926400;5.16316200;2022-12-13T12:38:27;3.10;99.90
19363;DHT22;9817;50.80926400;5.16316200;2022-12-13T13:05:36;2.90;99.90
19363;DHT22;9817;50.80926400;5.16316200;2022-12-13T13:08:14;3.10;99.90
19363;DHT22;9817;50.80926400;5.16316200;2022-12-13T13:10:42;3.30;99.90
19363;DHT22;9817;50.80926400;5.16316200;2022-12-13T13:16:31;3.20;99.90
19363;DHT22;9817;50.80926400;5.16316200;2022-12-13T13:19:03;3.20;99.90
19363;DHT22;9817;50.80926400;5.16316200;2022-12-13T13:21:39;3.00;99.90
19363;DHT22;9817;50.80926400;5.16316200;2022-12-13T13:32:04;3.10;99.90
19363;DHT22;9817;50.80926400;5.16316200;2022-12-13T13:34:34;3.20;99.90
19363;DHT22;9817;50.80926400;5.16316200;2022-12-13T13:37:02;3.00;99.90
19363;DHT22;9817;50.80926400;5.16316200;2022-12-13T13:52:36;2.50;99.90
19363;DHT22;9817;50.80926400;5.16316200;2022-12-13T13:55:41;2.40;99.90
19363;DHT22;9817;50.80926400;5.16316200;2022-12-13T14:06:53;2.20;99.90
19363;DHT22;9817;50.80926400;5.16316200;2022-12-13T14:29:02;1.70;99.90
19363;DHT22;9817;50.80926400;5.16316200;2022-12-13T14:34:05;1.80;99.90
19363;DHT22;9817;50.80926400;5.16316200;2022-12-13T14:36:34;1.70;99.90
19363;DHT22;9817;50.80926400;5.16316200;2022-12-13T14:39:06;1.90;99.90
19363;DHT22;9817;50.80926400;5.16316200;2022-12-13T14:41:47;2.10;99.90
19363;DHT22;9817;50.80926400;5.16316200;2022-12-13T14:47:03;2.20;99.90
19363;DHT22;9817;50.80926400;5.16316200;2022-12-13T14:49:41;2.20;99.90
19363;DHT22;9817;50.80926400;5.16316200;2022-12-13T14:54:47;1.80;99.90
19363;DHT22;9817;50.80926400;5.16316200;2022-12-13T14:57:16;1.80;99.90
19363;DHT22;9817;50.80926400;5.16316200;2022-12-13T14:59:46;1.60;99.90
19363;DHT22;9817;50.80926400;5.16316200;2022-12-13T15:02:15;1.60;99.90
19363;DHT22;9817;50.80926400;5.16316200;2022-12-13T15:04:42;1.60;99.90
19363;DHT22;9817;50.80926400;5.16316200;2022-12-13T15:07:19;1.40;99.90
19363;DHT22;9817;50.80926400;5.16316200;2022-12-13T15:09:53;1.40;99.90
19363;DHT22;9817;50.80926400;5.16316200;2022-12-13T15:12:21;1.50;99.90
19363;DHT22;9817;50.80926400;5.16316200;2022-12-13T15:17:34;1.40;99.90
19363;DHT22;9817;50.80926400;5.16316200;2022-12-13T15:20:01;1.20;99.90
19363;DHT22;9817;50.80926400;5.16316200;2022-12-13T15:22:27;1.10;99.90
19363;DHT22;9817;50.80926400;5.16316200;2022-12-13T15:24:54;1.00;99.90
19363;DHT22;9817;50.80926400;5.16316200;2022-12-13T15:27:21;0.90;99.90
19363;DHT22;9817;50.80926400;5.16316200;2022-12-13T15:29:49;0.90;99.90
19363;DHT22;9817;50.80926400;5.16316200;2022-12-13T15:32:17;0.90;99.90
19363;DHT22;9817;50.80926400;5.16316200;2022-12-13T15:34:46;1.00;99.90
19363;DHT22;9817;50.80926400;5.16316200;2022-12-13T15:39:40;0.90;99.90
19363;DHT22;9817;50.80926400;5.16316200;2022-12-13T15:42:34;1.00;99.90
19363;DHT22;9817;50.80926400;5.16316200;2022-12-13T15:45:03;1.00;99.90
19363;DHT22;9817;50.80926400;5.16316200;2022-12-13T15:47:29;1.00;99.90
19363;DHT22;9817;50.80926400;5.16316200;2022-12-13T15:50:00;0.90;99.90
19363;DHT22;9817;50.80926400;5.16316200;2022-12-13T15:52:33;0.90;99.90
19363;DHT22;9817;50.80926400;5.16316200;2022-12-13T15:55:00;1.00;99.90
19363;DHT22;9817;50.80926400;5.16316200;2022-12-13T15:57:31;1.00;99.90
19363;DHT22;9817;50.80926400;5.16316200;2022-12-13T16:02:56;1.00;99.90
19363;DHT22;9817;50.80926400;5.16316200;2022-12-13T16:07:54;1.00;99.90
19363;DHT22;9817;50.80926400;5.16316200;2022-12-13T16:10:20;0.80;99.90
19363;DHT22;9817;50.80926400;5.16316200;2022-12-13T16:12:51;0.90;99.90
19363;DHT22;9817;50.80926400;5.16316200;2022-12-13T16:15:22;0.70;99.90